sensor_id;sensor_type;location;lat;lon;timestamp;P1;durP1;ratioP1;P2;durP2;ratioP2
67051;SDS011;53957;47.222;18.670;2022-09-09T00:02:59;1.60;;;1.50;;
67051;SDS011;53957;47.222;18.670;2022-09-09T00:06:13;1.80;;;1.40;;
67051;SDS011;53957;47.222;18.670;2022-09-09T00:13:56;1.58;;;1.48;;
67051;SDS011;53957;47.222;18.670;2022-09-09T00:17:04;1.80;;;1.70;;
67051;SDS011;53957;47.222;18.670;2022-09-09T00:20:30;1.55;;;1.45;;
67051;SDS011;53957;47.222;18.670;2022-09-09T00:23:39;1.62;;;1.52;;
67051;SDS011;53957;47.222;18.670;2022-09-09T00:26:51;1.30;;;1.30;;
67051;SDS011;53957;47.222;18.670;2022-09-09T00:33:29;1.45;;;1.45;;
67051;SDS011;53957;47.222;18.670;2022-09-09T00:36:33;1.58;;;1.48;;
67051;SDS011;53957;47.222;18.670;2022-09-09T00:39:42;1.60;;;1.50;;
67051;SDS011;53957;47.222;18.670;2022-09-09T00:42:52;1.42;;;1.37;;
67051;SDS011;53957;47.222;18.670;2022-09-09T00:56:37;1.62;;;1.52;;
67051;SDS011;53957;47.222;18.670;2022-09-09T00:59:46;3.80;;;1.40;;
67051;SDS011;53957;47.222;18.670;2022-09-09T01:06:30;3.55;;;1.83;;
67051;SDS011;53957;47.222;18.670;2022-09-09T01:12:48;3.50;;;1.67;;
67051;SDS011;53957;47.222;18.670;2022-09-09T01:15:55;2.03;;;1.62;;
67051;SDS011;53957;47.222;18.670;2022-09-09T01:19:04;1.90;;;1.80;;
67051;SDS011;53957;47.222;18.670;2022-09-09T01:22:26;1.70;;;1.45;;
67051;SDS011;53957;47.222;18.670;2022-09-09T01:29:14;1.80;;;1.70;;
67051;SDS011;53957;47.222;18.670;2022-09-09T01:35:52;1.85;;;1.75;;
67051;SDS011;53957;47.222;18.670;2022-09-09T01:39:00;1.85;;;1.75;;
67051;SDS011;53957;47.222;18.670;2022-09-09T01:42:04;1.65;;;1.58;;
67051;SDS011;53957;47.222;18.670;2022-09-09T01:45:10;2.00;;;1.90;;
67051;SDS011;53957;47.222;18.670;2022-09-09T01:48:13;2.22;;;1.98;;
67051;SDS011;53957;47.222;18.670;2022-09-09T01:51:17;1.80;;;1.70;;
67051;SDS011;53957;47.222;18.670;2022-09-09T01:54:23;4.05;;;1.50;;
67051;SDS011;53957;47.222;18.670;2022-09-09T01:57:33;2.20;;;2.08;;
67051;SDS011;53957;47.222;18.670;2022-09-09T02:00:48;6.97;;;2.20;;
67051;SDS011;53957;47.222;18.670;2022-09-09T02:07:49;1.90;;;1.80;;
67051;SDS011;53957;47.222;18.670;2022-09-09T02:14:16;4.65;;;2.00;;
67051;SDS011;53957;47.222;18.670;2022-09-09T02:17:26;1.77;;;1.67;;
67051;SDS011;53957;47.222;18.670;2022-09-09T02:20:34;2.70;;;2.20;;
67051;SDS011;53957;47.222;18.670;2022-09-09T02:23:41;4.90;;;1.73;;
67051;SDS011;53957;47.222;18.670;2022-09-09T02:26:47;1.87;;;1.77;;
67051;SDS011;53957;47.222;18.670;2022-09-09T02:29:55;2.20;;;1.90;;
67051;SDS011;53957;47.222;18.670;2022-09-09T02:33:06;1.87;;;1.75;;
67051;SDS011;53957;47.222;18.670;2022-09-09T02:36:14;1.70;;;1.58;;
67051;SDS011;53957;47.222;18.670;2022-09-09T02:39:19;5.97;;;1.90;;
67051;SDS011;53957;47.222;18.670;2022-09-09T02:42:24;2.15;;;2.05;;
67051;SDS011;53957;47.222;18.670;2022-09-09T02:52:32;1.92;;;1.83;;
67051;SDS011;53957;47.222;18.670;2022-09-09T02:55:46;2.08;;;1.98;;
67051;SDS011;53957;47.222;18.670;2022-09-09T02:58:51;2.00;;;1.83;;
67051;SDS011;53957;47.222;18.670;2022-09-09T03:01:54;1.95;;;1.85;;
67051;SDS011;53957;47.222;18.670;2022-09-09T03:04:58;3.40;;;1.52;;
67051;SDS011;53957;47.222;18.670;2022-09-09T03:08:02;2.25;;;1.95;;
67051;SDS011;53957;47.222;18.670;2022-09-09T03:11:06;1.60;;;1.50;;
67051;SDS011;53957;47.222;18.670;2022-09-09T03:14:12;3.20;;;1.87;;
67051;SDS011;53957;47.222;18.670;2022-09-09T03:17:15;2.10;;;1.70;;
67051;SDS011;53957;47.222;18.670;2022-09-09T03:20:20;1.67;;;1.58;;
67051;SDS011;53957;47.222;18.670;2022-09-09T03:23:23;2.00;;;1.90;;
67051;SDS011;53957;47.222;18.670;2022-09-09T03:26:26;4.30;;;2.10;;
67051;SDS011;53957;47.222;18.670;2022-09-09T03:29:30;3.17;;;1.95;;
67051;SDS011;53957;47.222;18.670;2022-09-09T03:32:33;2.15;;;2.05;;
67051;SDS011;53957;47.222;18.670;2022-09-09T03:35:36;1.85;;;1.75;;
67051;SDS011;53957;47.222;18.670;2022-09-09T03:38:40;2.03;;;1.92;;
67051;SDS011;53957;47.222;18.670;2022-09-09T03:41:44;1.80;;;1.70;;
67051;SDS011;53957;47.222;18.670;2022-09-09T03:44:49;1.80;;;1.62;;
67051;SDS011;53957;47.222;18.670;2022-09-09T03:47:56;1.73;;;1.62;;
67051;SDS011;53957;47.222;18.670;2022-09-09T03:51:00;2.00;;;1.90;;
67051;SDS011;53957;47.222;18.670;2022-09-09T03:54:04;2.62;;;2.00;;
67051;SDS011;53957;47.222;18.670;2022-09-09T03:57:10;1.58;;;1.50;;
67051;SDS011;53957;47.222;18.670;2022-09-09T04:00:13;3.30;;;1.85;;
67051;SDS011;53957;47.222;18.670;2022-09-09T04:03:17;7.10;;;1.75;;
67051;SDS011;53957;47.222;18.670;2022-09-09T04:06:20;1.58;;;1.52;;
67051;SDS011;53957;47.222;18.670;2022-09-09T04:09:24;1.90;;;1.80;;
67051;SDS011;53957;47.222;18.670;2022-09-09T04:12:27;1.70;;;1.60;;
67051;SDS011;53957;47.222;18.670;2022-09-09T04:15:30;1.95;;;1.85;;
67051;SDS011;53957;47.222;18.670;2022-09-09T04:18:34;2.67;;;1.83;;
67051;SDS011;53957;47.222;18.670;2022-09-09T04:21:38;2.62;;;1.87;;
67051;SDS011;53957;47.222;18.670;2022-09-09T04:24:42;1.77;;;1.67;;
67051;SDS011;53957;47.222;18.670;2022-09-09T04:27:57;1.58;;;1.37;;
67051;SDS011;53957;47.222;18.670;2022-09-09T04:31:08;1.48;;;1.40;;
67051;SDS011;53957;47.222;18.670;2022-09-09T04:34:14;1.50;;;1.50;;
67051;SDS011;53957;47.222;18.670;2022-09-09T04:37:17;1.60;;;1.50;;
67051;SDS011;53957;47.222;18.670;2022-09-09T04:40:23;2.47;;;1.70;;
67051;SDS011;53957;47.222;18.670;2022-09-09T04:43:26;2.17;;;1.25;;
67051;SDS011;53957;47.222;18.670;2022-09-09T04:46:29;1.75;;;1.60;;
67051;SDS011;53957;47.222;18.670;2022-09-09T04:49:32;1.50;;;1.40;;
67051;SDS011;53957;47.222;18.670;2022-09-09T04:52:36;3.53;;;1.52;;
67051;SDS011;53957;47.222;18.670;2022-09-09T04:55:40;1.70;;;1.60;;
67051;SDS011;53957;47.222;18.670;2022-09-09T04:58:43;3.00;;;1.58;;
67051;SDS011;53957;47.222;18.670;2022-09-09T05:01:47;1.30;;;1.30;;
67051;SDS011;53957;47.222;18.670;2022-09-09T05:04:50;1.70;;;1.60;;
67051;SDS011;53957;47.222;18.670;2022-09-09T05:07:53;1.60;;;1.50;;
67051;SDS011;53957;47.222;18.670;2022-09-09T05:10:56;1.80;;;1.50;;
67051;SDS011;53957;47.222;18.670;2022-09-09T05:13:59;1.50;;;1.40;;
67051;SDS011;53957;47.222;18.670;2022-09-09T05:17:02;1.62;;;1.50;;
67051;SDS011;53957;47.222;18.670;2022-09-09T05:20:07;2.08;;;1.62;;
67051;SDS011;53957;47.222;18.670;2022-09-09T05:23:17;1.30;;;1.30;;
67051;SDS011;53957;47.222;18.670;2022-09-09T05:26:21;1.67;;;1.58;;
67051;SDS011;53957;47.222;18.670;2022-09-09T05:29:25;1.70;;;1.60;;
67051;SDS011;53957;47.222;18.670;2022-09-09T05:32:31;2.60;;;1.37;;
67051;SDS011;53957;47.222;18.670;2022-09-09T05:35:37;1.25;;;1.20;;
67051;SDS011;53957;47.222;18.670;2022-09-09T05:38:41;1.08;;;1.08;;
67051;SDS011;53957;47.222;18.670;2022-09-09T05:41:44;1.00;;;1.00;;
67051;SDS011;53957;47.222;18.670;2022-09-09T05:44:47;1.37;;;1.30;;
67051;SDS011;53957;47.222;18.670;2022-09-09T05:47:53;1.75;;;1.25;;
67051;SDS011;53957;47.222;18.670;2022-09-09T05:50:58;2.00;;;1.20;;
67051;SDS011;53957;47.222;18.670;2022-09-09T05:54:01;1.45;;;1.20;;
67051;SDS011;53957;47.222;18.670;2022-09-09T05:57:04;1.20;;;1.20;;
67051;SDS011;53957;47.222;18.670;2022-09-09T06:00:12;1.52;;;1.25;;
67051;SDS011;53957;47.222;18.670;2022-09-09T06:03:17;2.47;;;1.25;;
67051;SDS011;53957;47.222;18.670;2022-09-09T06:06:21;1.00;;;1.00;;
67051;SDS011;53957;47.222;18.670;2022-09-09T06:09:28;1.02;;;1.02;;
67051;SDS011;53957;47.222;18.670;2022-09-09T06:12:32;1.10;;;1.10;;
67051;SDS011;53957;47.222;18.670;2022-09-09T06:15:36;1.00;;;1.00;;
67051;SDS011;53957;47.222;18.670;2022-09-09T06:18:39;1.52;;;0.93;;
67051;SDS011;53957;47.222;18.670;2022-09-09T06:21:43;3.17;;;1.20;;
67051;SDS011;53957;47.222;18.670;2022-09-09T06:24:47;3.95;;;1.20;;
67051;SDS011;53957;47.222;18.670;2022-09-09T06:27:51;1.37;;;1.20;;
67051;SDS011;53957;47.222;18.670;2022-09-09T06:31:01;1.08;;;1.00;;
67051;SDS011;53957;47.222;18.670;2022-09-09T06:34:07;1.02;;;1.02;;
67051;SDS011;53957;47.222;18.670;2022-09-09T06:37:12;0.90;;;0.90;;
67051;SDS011;53957;47.222;18.670;2022-09-09T06:40:16;2.22;;;1.02;;
67051;SDS011;53957;47.222;18.670;2022-09-09T06:43:19;1.35;;;0.95;;
67051;SDS011;53957;47.222;18.670;2022-09-09T06:46:27;1.00;;;1.00;;
67051;SDS011;53957;47.222;18.670;2022-09-09T06:49:34;0.90;;;0.90;;
67051;SDS011;53957;47.222;18.670;2022-09-09T06:52:39;0.90;;;0.90;;
67051;SDS011;53957;47.222;18.670;2022-09-09T06:55:43;0.80;;;0.80;;
67051;SDS011;53957;47.222;18.670;2022-09-09T06:58:48;2.12;;;1.25;;
67051;SDS011;53957;47.222;18.670;2022-09-09T07:01:53;1.40;;;1.30;;
67051;SDS011;53957;47.222;18.670;2022-09-09T07:04:59;1.40;;;1.30;;
67051;SDS011;53957;47.222;18.670;2022-09-09T07:08:02;1.02;;;1.02;;
67051;SDS011;53957;47.222;18.670;2022-09-09T07:11:06;2.62;;;1.35;;
67051;SDS011;53957;47.222;18.670;2022-09-09T07:14:14;3.33;;;1.23;;
67051;SDS011;53957;47.222;18.670;2022-09-09T07:17:18;2.40;;;1.20;;
67051;SDS011;53957;47.222;18.670;2022-09-09T07:20:21;1.42;;;1.30;;
67051;SDS011;53957;47.222;18.670;2022-09-09T07:23:25;2.83;;;1.17;;
67051;SDS011;53957;47.222;18.670;2022-09-09T07:26:29;3.20;;;0.93;;
67051;SDS011;53957;47.222;18.670;2022-09-09T07:29:33;3.12;;;1.12;;
67051;SDS011;53957;47.222;18.670;2022-09-09T07:32:36;0.93;;;0.93;;
67051;SDS011;53957;47.222;18.670;2022-09-09T07:35:40;1.20;;;1.10;;
67051;SDS011;53957;47.222;18.670;2022-09-09T07:38:45;7.40;;;1.70;;
67051;SDS011;53957;47.222;18.670;2022-09-09T07:41:54;1.73;;;1.10;;
67051;SDS011;53957;47.222;18.670;2022-09-09T07:44:57;1.50;;;1.40;;
67051;SDS011;53957;47.222;18.670;2022-09-09T07:48:00;1.40;;;1.30;;
67051;SDS011;53957;47.222;18.670;2022-09-09T07:51:11;1.12;;;1.10;;
67051;SDS011;53957;47.222;18.670;2022-09-09T07:54:21;1.40;;;1.12;;
67051;SDS011;53957;47.222;18.670;2022-09-09T07:57:26;1.73;;;1.33;;
67051;SDS011;53957;47.222;18.670;2022-09-09T08:00:30;4.82;;;1.48;;
67051;SDS011;53957;47.222;18.670;2022-09-09T08:03:34;1.33;;;1.23;;
67051;SDS011;53957;47.222;18.670;2022-09-09T08:06:40;3.42;;;1.10;;
67051;SDS011;53957;47.222;18.670;2022-09-09T08:10:05;0.90;;;0.90;;
67051;SDS011;53957;47.222;18.670;2022-09-09T08:13:09;2.83;;;1.25;;
67051;SDS011;53957;47.222;18.670;2022-09-09T08:16:23;2.33;;;0.80;;
67051;SDS011;53957;47.222;18.670;2022-09-09T08:19:28;3.15;;;0.95;;
67051;SDS011;53957;47.222;18.670;2022-09-09T08:22:36;0.70;;;0.70;;
67051;SDS011;53957;47.222;18.670;2022-09-09T08:25:40;0.85;;;0.85;;
67051;SDS011;53957;47.222;18.670;2022-09-09T08:28:44;0.75;;;0.70;;
67051;SDS011;53957;47.222;18.670;2022-09-09T08:31:49;0.70;;;0.70;;
67051;SDS011;53957;47.222;18.670;2022-09-09T08:34:57;0.90;;;0.90;;
67051;SDS011;53957;47.222;18.670;2022-09-09T08:38:03;0.70;;;0.70;;
67051;SDS011;53957;47.222;18.670;2022-09-09T08:44:53;0.60;;;0.60;;
67051;SDS011;53957;47.222;18.670;2022-09-09T08:51:29;0.98;;;0.90;;
67051;SDS011;53957;47.222;18.670;2022-09-09T08:54:35;1.12;;;0.65;;
67051;SDS011;53957;47.222;18.670;2022-09-09T08:57:55;0.65;;;0.60;;
67051;SDS011;53957;47.222;18.670;2022-09-09T09:07:59;0.60;;;0.60;;
67051;SDS011;53957;47.222;18.670;2022-09-09T09:11:07;0.85;;;0.85;;
67051;SDS011;53957;47.222;18.670;2022-09-09T09:14:17;0.70;;;0.70;;
67051;SDS011;53957;47.222;18.670;2022-09-09T09:17:26;1.02;;;0.80;;
67051;SDS011;53957;47.222;18.670;2022-09-09T09:23:42;1.15;;;0.70;;
67051;SDS011;53957;47.222;18.670;2022-09-09T09:26:54;0.70;;;0.70;;
67051;SDS011;53957;47.222;18.670;2022-09-09T09:29:59;0.60;;;0.60;;
67051;SDS011;53957;47.222;18.670;2022-09-09T09:33:26;0.60;;;0.60;;
67051;SDS011;53957;47.222;18.670;2022-09-09T09:36:42;0.50;;;0.50;;
67051;SDS011;53957;47.222;18.670;2022-09-09T09:39:48;2.67;;;0.62;;
67051;SDS011;53957;47.222;18.670;2022-09-09T09:43:16;0.73;;;0.73;;
67051;SDS011;53957;47.222;18.670;2022-09-09T09:46:25;0.50;;;0.50;;
67051;SDS011;53957;47.222;18.670;2022-09-09T09:49:30;0.50;;;0.50;;
67051;SDS011;53957;47.222;18.670;2022-09-09T09:52:33;0.60;;;0.60;;
67051;SDS011;53957;47.222;18.670;2022-09-09T09:55:44;0.70;;;0.70;;
67051;SDS011;53957;47.222;18.670;2022-09-09T09:58:56;0.55;;;0.55;;
67051;SDS011;53957;47.222;18.670;2022-09-09T10:08:28;0.40;;;0.40;;
67051;SDS011;53957;47.222;18.670;2022-09-09T10:15:34;0.60;;;0.60;;
67051;SDS011;53957;47.222;18.670;2022-09-09T10:22:16;1.60;;;0.57;;
67051;SDS011;53957;47.222;18.670;2022-09-09T10:25:48;1.55;;;0.57;;
67051;SDS011;53957;47.222;18.670;2022-09-09T10:29:19;0.75;;;0.50;;
67051;SDS011;53957;47.222;18.670;2022-09-09T10:42:16;0.73;;;0.50;;
67051;SDS011;53957;47.222;18.670;2022-09-09T10:45:29;1.35;;;0.50;;
67051;SDS011;53957;47.222;18.670;2022-09-09T10:49:02;1.00;;;0.30;;
67051;SDS011;53957;47.222;18.670;2022-09-09T10:55:39;0.40;;;0.40;;
67051;SDS011;53957;47.222;18.670;2022-09-09T10:58:56;0.40;;;0.40;;
67051;SDS011;53957;47.222;18.670;2022-09-09T11:05:20;0.43;;;0.43;;
67051;SDS011;53957;47.222;18.670;2022-09-09T11:08:28;0.52;;;0.40;;
67051;SDS011;53957;47.222;18.670;2022-09-09T11:11:54;0.50;;;0.50;;
67051;SDS011;53957;47.222;18.670;2022-09-09T11:14:59;0.40;;;0.40;;
67051;SDS011;53957;47.222;18.670;2022-09-09T11:18:11;0.40;;;0.40;;
67051;SDS011;53957;47.222;18.670;2022-09-09T11:21:31;0.43;;;0.43;;
67051;SDS011;53957;47.222;18.670;2022-09-09T11:24:42;1.65;;;0.60;;
67051;SDS011;53957;47.222;18.670;2022-09-09T11:31:37;0.80;;;0.50;;
67051;SDS011;53957;47.222;18.670;2022-09-09T11:34:56;0.68;;;0.50;;
67051;SDS011;53957;47.222;18.670;2022-09-09T11:41:43;0.80;;;0.50;;
67051;SDS011;53957;47.222;18.670;2022-09-09T11:44:47;0.55;;;0.45;;
67051;SDS011;53957;47.222;18.670;2022-09-09T11:47:53;0.62;;;0.60;;
67051;SDS011;53957;47.222;18.670;2022-09-09T11:51:08;0.45;;;0.45;;
67051;SDS011;53957;47.222;18.670;2022-09-09T11:54:33;0.50;;;0.50;;
67051;SDS011;53957;47.222;18.670;2022-09-09T11:57:48;0.73;;;0.60;;
67051;SDS011;53957;47.222;18.670;2022-09-09T12:01:25;0.93;;;0.60;;
67051;SDS011;53957;47.222;18.670;2022-09-09T12:07:40;0.82;;;0.52;;
67051;SDS011;53957;47.222;18.670;2022-09-09T12:10:55;0.43;;;0.43;;
67051;SDS011;53957;47.222;18.670;2022-09-09T12:14:00;0.60;;;0.60;;
67051;SDS011;53957;47.222;18.670;2022-09-09T12:23:42;0.75;;;0.60;;
67051;SDS011;53957;47.222;18.670;2022-09-09T12:26:55;1.05;;;0.60;;
67051;SDS011;53957;47.222;18.670;2022-09-09T12:30:22;0.75;;;0.65;;
67051;SDS011;53957;47.222;18.670;2022-09-09T12:33:36;0.80;;;0.60;;
67051;SDS011;53957;47.222;18.670;2022-09-09T12:36:46;0.50;;;0.50;;
67051;SDS011;53957;47.222;18.670;2022-09-09T12:39:58;0.65;;;0.65;;
67051;SDS011;53957;47.222;18.670;2022-09-09T12:43:20;1.35;;;0.60;;
67051;SDS011;53957;47.222;18.670;2022-09-09T12:46:32;1.05;;;0.70;;
67051;SDS011;53957;47.222;18.670;2022-09-09T12:49:40;0.70;;;0.70;;
67051;SDS011;53957;47.222;18.670;2022-09-09T12:52:43;0.60;;;0.60;;
67051;SDS011;53957;47.222;18.670;2022-09-09T12:55:50;0.60;;;0.60;;
67051;SDS011;53957;47.222;18.670;2022-09-09T12:58:59;2.37;;;0.65;;
67051;SDS011;53957;47.222;18.670;2022-09-09T13:02:11;1.35;;;0.70;;
67051;SDS011;53957;47.222;18.670;2022-09-09T13:05:35;0.50;;;0.50;;
67051;SDS011;53957;47.222;18.670;2022-09-09T13:08:40;0.70;;;0.70;;
67051;SDS011;53957;47.222;18.670;2022-09-09T13:11:43;0.77;;;0.77;;
67051;SDS011;53957;47.222;18.670;2022-09-09T13:14:52;0.55;;;0.50;;
67051;SDS011;53957;47.222;18.670;2022-09-09T13:17:57;0.60;;;0.60;;
67051;SDS011;53957;47.222;18.670;2022-09-09T13:21:03;1.62;;;0.60;;
67051;SDS011;53957;47.222;18.670;2022-09-09T13:24:21;3.45;;;0.80;;
67051;SDS011;53957;47.222;18.670;2022-09-09T13:27:39;0.70;;;0.70;;
67051;SDS011;53957;47.222;18.670;2022-09-09T13:30:58;1.20;;;0.62;;
67051;SDS011;53957;47.222;18.670;2022-09-09T13:37:33;4.62;;;1.05;;
67051;SDS011;53957;47.222;18.670;2022-09-09T13:40:38;2.28;;;1.00;;
67051;SDS011;53957;47.222;18.670;2022-09-09T13:43:44;1.37;;;0.70;;
67051;SDS011;53957;47.222;18.670;2022-09-09T13:53:31;6.75;;;1.33;;
67051;SDS011;53957;47.222;18.670;2022-09-09T13:56:35;0.52;;;0.50;;
67051;SDS011;53957;47.222;18.670;2022-09-09T13:59:39;1.90;;;0.90;;
67051;SDS011;53957;47.222;18.670;2022-09-09T14:03:05;1.75;;;0.60;;
67051;SDS011;53957;47.222;18.670;2022-09-09T14:06:10;3.30;;;0.90;;
67051;SDS011;53957;47.222;18.670;2022-09-09T14:09:14;0.80;;;0.80;;
67051;SDS011;53957;47.222;18.670;2022-09-09T14:12:18;0.60;;;0.60;;
67051;SDS011;53957;47.222;18.670;2022-09-09T14:15:21;2.35;;;0.68;;
67051;SDS011;53957;47.222;18.670;2022-09-09T14:18:24;1.20;;;0.68;;
67051;SDS011;53957;47.222;18.670;2022-09-09T14:21:47;0.85;;;0.57;;
67051;SDS011;53957;47.222;18.670;2022-09-09T14:24:51;0.60;;;0.60;;
67051;SDS011;53957;47.222;18.670;2022-09-09T14:27:54;0.70;;;0.70;;
67051;SDS011;53957;47.222;18.670;2022-09-09T14:31:02;0.75;;;0.65;;
67051;SDS011;53957;47.222;18.670;2022-09-09T14:34:06;0.70;;;0.70;;
67051;SDS011;53957;47.222;18.670;2022-09-09T14:37:09;1.65;;;0.88;;
67051;SDS011;53957;47.222;18.670;2022-09-09T14:40:12;0.70;;;0.70;;
67051;SDS011;53957;47.222;18.670;2022-09-09T14:43:17;0.77;;;0.70;;
67051;SDS011;53957;47.222;18.670;2022-09-09T14:46:19;0.80;;;0.80;;
67051;SDS011;53957;47.222;18.670;2022-09-09T14:49:27;1.67;;;0.70;;
67051;SDS011;53957;47.222;18.670;2022-09-09T14:52:31;4.40;;;0.80;;
67051;SDS011;53957;47.222;18.670;2022-09-09T14:55:34;1.30;;;0.70;;
67051;SDS011;53957;47.222;18.670;2022-09-09T14:58:37;1.40;;;0.73;;
67051;SDS011;53957;47.222;18.670;2022-09-09T15:01:40;0.80;;;0.80;;
67051;SDS011;53957;47.222;18.670;2022-09-09T15:04:43;4.45;;;0.70;;
67051;SDS011;53957;47.222;18.670;2022-09-09T15:07:46;3.53;;;0.85;;
67051;SDS011;53957;47.222;18.670;2022-09-09T15:10:50;1.80;;;0.70;;
67051;SDS011;53957;47.222;18.670;2022-09-09T15:13:53;2.33;;;0.80;;
67051;SDS011;53957;47.222;18.670;2022-09-09T15:16:56;0.70;;;0.70;;
67051;SDS011;53957;47.222;18.670;2022-09-09T15:19:59;1.05;;;1.05;;
67051;SDS011;53957;47.222;18.670;2022-09-09T15:23:03;1.58;;;0.70;;
67051;SDS011;53957;47.222;18.670;2022-09-09T15:26:07;1.42;;;1.33;;
67051;SDS011;53957;47.222;18.670;2022-09-09T15:29:10;1.23;;;1.15;;
67051;SDS011;53957;47.222;18.670;2022-09-09T15:32:13;1.58;;;1.12;;
67051;SDS011;53957;47.222;18.670;2022-09-09T15:35:16;2.05;;;0.98;;
67051;SDS011;53957;47.222;18.670;2022-09-09T15:38:20;1.65;;;1.00;;
67051;SDS011;53957;47.222;18.670;2022-09-09T15:41:26;2.97;;;1.08;;
67051;SDS011;53957;47.222;18.670;2022-09-09T15:44:37;2.15;;;0.95;;
67051;SDS011;53957;47.222;18.670;2022-09-09T15:47:40;1.10;;;0.80;;
67051;SDS011;53957;47.222;18.670;2022-09-09T15:50:44;2.17;;;1.00;;
67051;SDS011;53957;47.222;18.670;2022-09-09T15:53:46;1.15;;;0.80;;
67051;SDS011;53957;47.222;18.670;2022-09-09T15:56:52;1.00;;;0.70;;
67051;SDS011;53957;47.222;18.670;2022-09-09T15:59:59;3.53;;;0.95;;
67051;SDS011;53957;47.222;18.670;2022-09-09T16:03:02;1.73;;;1.20;;
67051;SDS011;53957;47.222;18.670;2022-09-09T16:06:05;3.83;;;1.48;;
67051;SDS011;53957;47.222;18.670;2022-09-09T16:09:08;2.03;;;1.73;;
67051;SDS011;53957;47.222;18.670;2022-09-09T16:12:12;1.55;;;1.42;;
67051;SDS011;53957;47.222;18.670;2022-09-09T16:15:16;2.30;;;1.33;;
67051;SDS011;53957;47.222;18.670;2022-09-09T16:18:20;6.43;;;1.17;;
67051;SDS011;53957;47.222;18.670;2022-09-09T16:21:27;3.22;;;1.60;;
67051;SDS011;53957;47.222;18.670;2022-09-09T16:24:34;1.00;;;1.00;;
67051;SDS011;53957;47.222;18.670;2022-09-09T16:27:37;2.65;;;1.52;;
67051;SDS011;53957;47.222;18.670;2022-09-09T16:30:40;1.10;;;1.10;;
67051;SDS011;53957;47.222;18.670;2022-09-09T16:33:43;2.42;;;0.77;;
67051;SDS011;53957;47.222;18.670;2022-09-09T16:36:47;3.42;;;1.08;;
67051;SDS011;53957;47.222;18.670;2022-09-09T16:39:50;0.82;;;0.82;;
67051;SDS011;53957;47.222;18.670;2022-09-09T16:42:54;0.90;;;0.90;;
67051;SDS011;53957;47.222;18.670;2022-09-09T16:45:57;1.42;;;1.30;;
67051;SDS011;53957;47.222;18.670;2022-09-09T16:49:05;1.45;;;1.15;;
67051;SDS011;53957;47.222;18.670;2022-09-09T16:52:10;0.90;;;0.90;;
67051;SDS011;53957;47.222;18.670;2022-09-09T16:55:12;3.62;;;1.25;;
67051;SDS011;53957;47.222;18.670;2022-09-09T16:58:16;4.90;;;0.98;;
67051;SDS011;53957;47.222;18.670;2022-09-09T17:01:19;0.93;;;0.90;;
67051;SDS011;53957;47.222;18.670;2022-09-09T17:04:24;1.15;;;1.00;;
67051;SDS011;53957;47.222;18.670;2022-09-09T17:07:29;1.08;;;0.90;;
67051;SDS011;53957;47.222;18.670;2022-09-09T17:10:31;3.62;;;1.08;;
67051;SDS011;53957;47.222;18.670;2022-09-09T17:13:34;1.12;;;0.93;;
67051;SDS011;53957;47.222;18.670;2022-09-09T17:16:43;1.60;;;1.20;;
67051;SDS011;53957;47.222;18.670;2022-09-09T17:19:47;1.00;;;1.00;;
67051;SDS011;53957;47.222;18.670;2022-09-09T17:22:50;1.08;;;1.08;;
67051;SDS011;53957;47.222;18.670;2022-09-09T17:25:57;2.33;;;1.25;;
67051;SDS011;53957;47.222;18.670;2022-09-09T17:29:01;2.60;;;1.35;;
67051;SDS011;53957;47.222;18.670;2022-09-09T17:32:05;1.77;;;1.35;;
67051;SDS011;53957;47.222;18.670;2022-09-09T17:35:09;7.80;;;1.00;;
67051;SDS011;53957;47.222;18.670;2022-09-09T17:38:32;4.22;;;1.15;;
67051;SDS011;53957;47.222;18.670;2022-09-09T17:41:36;3.92;;;1.77;;
67051;SDS011;53957;47.222;18.670;2022-09-09T17:44:41;12.37;;;1.62;;
67051;SDS011;53957;47.222;18.670;2022-09-09T17:47:44;2.65;;;1.70;;
67051;SDS011;53957;47.222;18.670;2022-09-09T17:50:47;1.55;;;1.45;;
67051;SDS011;53957;47.222;18.670;2022-09-09T17:54:01;1.50;;;1.40;;
67051;SDS011;53957;47.222;18.670;2022-09-09T17:57:26;2.28;;;1.30;;
67051;SDS011;53957;47.222;18.670;2022-09-09T18:00:30;2.75;;;1.58;;
67051;SDS011;53957;47.222;18.670;2022-09-09T18:03:53;2.60;;;1.40;;
67051;SDS011;53957;47.222;18.670;2022-09-09T18:06:59;2.37;;;1.55;;
67051;SDS011;53957;47.222;18.670;2022-09-09T18:10:02;5.65;;;1.70;;
67051;SDS011;53957;47.222;18.670;2022-09-09T18:13:05;2.90;;;1.70;;
67051;SDS011;53957;47.222;18.670;2022-09-09T18:16:12;1.77;;;1.67;;
67051;SDS011;53957;47.222;18.670;2022-09-09T18:19:35;1.80;;;1.70;;
67051;SDS011;53957;47.222;18.670;2022-09-09T18:22:38;1.98;;;1.50;;
67051;SDS011;53957;47.222;18.670;2022-09-09T18:25:41;5.43;;;1.80;;
67051;SDS011;53957;47.222;18.670;2022-09-09T18:58:06;1.60;;;1.50;;
67051;SDS011;53957;47.222;18.670;2022-09-09T19:01:10;1.60;;;1.50;;
67051;SDS011;53957;47.222;18.670;2022-09-09T19:04:15;1.37;;;1.27;;
67051;SDS011;53957;47.222;18.670;2022-09-09T19:07:19;2.25;;;1.37;;
67051;SDS011;53957;47.222;18.670;2022-09-09T19:10:23;3.80;;;1.42;;
67051;SDS011;53957;47.222;18.670;2022-09-09T19:13:27;5.45;;;1.50;;
67051;SDS011;53957;47.222;18.670;2022-09-09T19:16:31;1.30;;;1.17;;
67051;SDS011;53957;47.222;18.670;2022-09-09T19:19:35;10.07;;;1.50;;
67051;SDS011;53957;47.222;18.670;2022-09-09T19:22:38;4.10;;;1.37;;
67051;SDS011;53957;47.222;18.670;2022-09-09T19:25:41;3.67;;;1.27;;
67051;SDS011;53957;47.222;18.670;2022-09-09T19:28:44;1.85;;;1.40;;
67051;SDS011;53957;47.222;18.670;2022-09-09T19:31:48;2.83;;;1.42;;
67051;SDS011;53957;47.222;18.670;2022-09-09T19:35:12;2.72;;;1.35;;
67051;SDS011;53957;47.222;18.670;2022-09-09T19:38:15;1.45;;;1.35;;
67051;SDS011;53957;47.222;18.670;2022-09-09T19:41:20;3.17;;;1.87;;
67051;SDS011;53957;47.222;18.670;2022-09-09T19:44:26;1.35;;;1.30;;
67051;SDS011;53957;47.222;18.670;2022-09-09T19:47:29;1.60;;;1.50;;
67051;SDS011;53957;47.222;18.670;2022-09-09T19:50:34;2.72;;;1.20;;
67051;SDS011;53957;47.222;18.670;2022-09-09T19:53:39;3.40;;;1.40;;
67051;SDS011;53957;47.222;18.670;2022-09-09T19:56:46;3.33;;;1.30;;
67051;SDS011;53957;47.222;18.670;2022-09-09T19:59:49;2.12;;;1.23;;
67051;SDS011;53957;47.222;18.670;2022-09-09T20:03:00;3.00;;;1.73;;
67051;SDS011;53957;47.222;18.670;2022-09-09T20:06:22;4.07;;;2.10;;
67051;SDS011;53957;47.222;18.670;2022-09-09T20:09:27;1.98;;;1.87;;
67051;SDS011;53957;47.222;18.670;2022-09-09T20:12:31;17.00;;;2.60;;
67051;SDS011;53957;47.222;18.670;2022-09-09T20:15:34;2.62;;;1.67;;
67051;SDS011;53957;47.222;18.670;2022-09-09T20:18:39;2.97;;;2.00;;
67051;SDS011;53957;47.222;18.670;2022-09-09T20:21:49;2.03;;;1.83;;
67051;SDS011;53957;47.222;18.670;2022-09-09T20:24:53;1.48;;;1.37;;
67051;SDS011;53957;47.222;18.670;2022-09-09T20:27:56;2.62;;;1.67;;
67051;SDS011;53957;47.222;18.670;2022-09-09T20:31:03;1.55;;;1.45;;
67051;SDS011;53957;47.222;18.670;2022-09-09T20:34:11;1.70;;;1.50;;
67051;SDS011;53957;47.222;18.670;2022-09-09T20:37:16;1.70;;;1.60;;
67051;SDS011;53957;47.222;18.670;2022-09-09T20:40:18;1.70;;;1.60;;
67051;SDS011;53957;47.222;18.670;2022-09-09T20:46:51;3.05;;;2.03;;
67051;SDS011;53957;47.222;18.670;2022-09-09T20:49:58;2.22;;;1.73;;
67051;SDS011;53957;47.222;18.670;2022-09-09T20:53:02;1.65;;;1.55;;
67051;SDS011;53957;47.222;18.670;2022-09-09T20:56:06;1.42;;;1.33;;
67051;SDS011;53957;47.222;18.670;2022-09-09T20:59:13;2.22;;;1.80;;
67051;SDS011;53957;47.222;18.670;2022-09-09T21:02:17;1.45;;;1.35;;
67051;SDS011;53957;47.222;18.670;2022-09-09T21:05:20;1.23;;;1.15;;